sensor_id;sensor_type;location;lat;lon;timestamp;pressure;altitude;pressure_sealevel;temperature;humidity
84795;BME280;75026;49.184;16.564;2024-03-22T00:02:14;99120.22;;;20.55;62.79
84795;BME280;75026;49.184;16.564;2024-03-22T00:07:15;99124.31;;;20.50;62.96
84795;BME280;75026;49.184;16.564;2024-03-22T00:12:16;99126.28;;;20.50;62.84
84795;BME280;75026;49.184;16.564;2024-03-22T00:17:17;99122.44;;;20.44;62.89
84795;BME280;75026;49.184;16.564;2024-03-22T00:22:20;99120.88;;;20.43;62.95
84795;BME280;75026;49.184;16.564;2024-03-22T00:27:21;99130.44;;;20.42;62.94
84795;BME280;75026;49.184;16.564;2024-03-22T00:32:22;99135.72;;;20.40;63.14
84795;BME280;75026;49.184;16.564;2024-03-22T00:37:23;99120.22;;;20.35;63.13
84795;BME280;75026;49.184;16.564;2024-03-22T00:42:23;99121.44;;;20.34;63.20
84795;BME280;75026;49.184;16.564;2024-03-22T00:47:24;99117.53;;;20.31;63.37
84795;BME280;75026;49.184;16.564;2024-03-22T00:52:25;99113.97;;;20.27;63.53
84795;BME280;75026;49.184;16.564;2024-03-22T00:57:26;99112.41;;;20.26;63.46
84795;BME280;75026;49.184;16.564;2024-03-22T01:02:27;99116.44;;;20.25;63.70
84795;BME280;75026;49.184;16.564;2024-03-22T01:07:27;99114.88;;;20.24;63.62
84795;BME280;75026;49.184;16.564;2024-03-22T01:12:28;99132.50;;;20.21;63.62
84795;BME280;75026;49.184;16.564;2024-03-22T01:17:29;99132.84;;;20.23;63.79
84795;BME280;75026;49.184;16.564;2024-03-22T01:22:30;99133.69;;;20.20;63.95
84795;BME280;75026;49.184;16.564;2024-03-22T01:27:31;99131.78;;;20.17;64.04
84795;BME280;75026;49.184;16.564;2024-03-22T01:32:31;99118.25;;;20.16;64.14
84795;BME280;75026;49.184;16.564;2024-03-22T01:37:32;99115.88;;;20.14;64.14
84795;BME280;75026;49.184;16.564;2024-03-22T01:42:33;99112.31;;;20.14;64.20
84795;BME280;75026;49.184;16.564;2024-03-22T01:47:34;99110.38;;;20.10;64.11
84795;BME280;75026;49.184;16.564;2024-03-22T01:52:36;99117.53;;;20.12;64.23
84795;BME280;75026;49.184;16.564;2024-03-22T01:57:38;99111.16;;;20.11;64.16
84795;BME280;75026;49.184;16.564;2024-03-22T02:02:38;99110.78;;;20.09;64.26
84795;BME280;75026;49.184;16.564;2024-03-22T02:07:39;99099.25;;;20.07;64.37
84795;BME280;75026;49.184;16.564;2024-03-22T02:12:40;99106.88;;;20.06;64.50
84795;BME280;75026;49.184;16.564;2024-03-22T02:17:41;99103.28;;;20.06;64.35
84795;BME280;75026;49.184;16.564;2024-03-22T02:22:42;99090.97;;;20.03;64.52
84795;BME280;75026;49.184;16.564;2024-03-22T02:27:43;99090.97;;;20.03;64.32
84795;BME280;75026;49.184;16.564;2024-03-22T02:32:44;99091.41;;;20.02;64.23
84795;BME280;75026;49.184;16.564;2024-03-22T02:37:44;99091.81;;;20.00;64.42
84795;BME280;75026;49.184;16.564;2024-03-22T02:42:45;99094.28;;;19.98;64.49
84795;BME280;75026;49.184;16.564;2024-03-22T02:47:46;99110.22;;;19.98;64.49
84795;BME280;75026;49.184;16.564;2024-03-22T02:52:48;99108.25;;;19.98;64.59
84795;BME280;75026;49.184;16.564;2024-03-22T02:57:49;99105.88;;;19.97;64.54
84795;BME280;75026;49.184;16.564;2024-03-22T03:02:50;99117.81;;;19.97;64.53
84795;BME280;75026;49.184;16.564;2024-03-22T03:07:51;99117.91;;;19.94;64.49
84795;BME280;75026;49.184;16.564;2024-03-22T03:12:54;99115.91;;;19.94;64.52
84795;BME280;75026;49.184;16.564;2024-03-22T03:17:55;99111.53;;;19.93;64.56
84795;BME280;75026;49.184;16.564;2024-03-22T03:22:56;99115.09;;;19.94;64.61
84795;BME280;75026;49.184;16.564;2024-03-22T03:28:00;99113.19;;;19.91;64.57
84795;BME280;75026;49.184;16.564;2024-03-22T03:33:01;99111.59;;;19.90;64.55
84795;BME280;75026;49.184;16.564;2024-03-22T03:38:01;99100.50;;;19.86;64.76
84795;BME280;75026;49.184;16.564;2024-03-22T03:43:02;99089.31;;;19.86;64.99
84795;BME280;75026;49.184;16.564;2024-03-22T03:48:03;99096.50;;;19.87;64.96
84795;BME280;75026;49.184;16.564;2024-03-22T03:53:04;99083.72;;;19.86;64.87
84795;BME280;75026;49.184;16.564;2024-03-22T03:58:05;99070.66;;;19.83;64.86
84795;BME280;75026;49.184;16.564;2024-03-22T04:03:07;99067.03;;;19.82;64.90
84795;BME280;75026;49.184;16.564;2024-03-22T04:08:08;99077.88;;;19.80;64.93
84795;BME280;75026;49.184;16.564;2024-03-22T04:13:09;99089.81;;;19.81;64.85
84795;BME280;75026;49.184;16.564;2024-03-22T04:18:10;99090.28;;;19.79;65.05
84795;BME280;75026;49.184;16.564;2024-03-22T04:23:11;99093.84;;;19.80;64.99
84795;BME280;75026;49.184;16.564;2024-03-22T04:28:14;99094.63;;;19.80;64.93
84795;BME280;75026;49.184;16.564;2024-03-22T04:33:15;99102.63;;;19.78;65.17
84795;BME280;75026;49.184;16.564;2024-03-22T04:38:16;99112.25;;;19.77;65.04
84795;BME280;75026;49.184;16.564;2024-03-22T04:43:16;99109.91;;;19.76;64.99
84795;BME280;75026;49.184;16.564;2024-03-22T04:48:19;99111.88;;;19.75;64.85
84795;BME280;75026;49.184;16.564;2024-03-22T04:53:21;99101.06;;;19.77;64.94
84795;BME280;75026;49.184;16.564;2024-03-22T04:58:22;99103.88;;;19.77;65.16
84795;BME280;75026;49.184;16.564;2024-03-22T05:03:23;99091.13;;;19.76;64.99
84795;BME280;75026;49.184;16.564;2024-03-22T05:08:24;99079.94;;;19.76;65.04
84795;BME280;75026;49.184;16.564;2024-03-22T05:13:24;99074.44;;;19.73;65.26
84795;BME280;75026;49.184;16.564;2024-03-22T05:18:25;99070.84;;;19.72;65.09
84795;BME280;75026;49.184;16.564;2024-03-22T05:23:26;99072.06;;;19.71;65.10
84795;BME280;75026;49.184;16.564;2024-03-22T05:28:27;99074.50;;;19.69;65.07
84795;BME280;75026;49.184;16.564;2024-03-22T05:33:27;99085.69;;;19.69;65.07
84795;BME280;75026;49.184;16.564;2024-03-22T05:38:29;99094.41;;;19.71;65.12
84795;BME280;75026;49.184;16.564;2024-03-22T05:43:29;99100.88;;;19.68;64.76
84795;BME280;75026;49.184;16.564;2024-03-22T05:48:30;99086.75;;;19.75;64.51
84795;BME280;75026;49.184;16.564;2024-03-22T05:53:31;99088.53;;;19.85;64.42
84795;BME280;75026;49.184;16.564;2024-03-22T05:58:32;99083.16;;;19.95;64.39
84795;BME280;75026;49.184;16.564;2024-03-22T06:03:32;99072.56;;;20.06;64.08
84795;BME280;75026;49.184;16.564;2024-03-22T06:08:33;99067.16;;;20.15;63.95
84795;BME280;75026;49.184;16.564;2024-03-22T06:13:35;99064.03;;;20.29;63.73
84795;BME280;75026;49.184;16.564;2024-03-22T06:18:37;99069.47;;;20.37;63.57
84795;BME280;75026;49.184;16.564;2024-03-22T06:23:38;99064.94;;;20.43;63.69
84795;BME280;75026;49.184;16.564;2024-03-22T06:28:39;99066.38;;;20.51;63.69
84795;BME280;75026;49.184;16.564;2024-03-22T06:33:40;99075.47;;;20.55;63.31
84795;BME280;75026;49.184;16.564;2024-03-22T06:38:41;99065.84;;;20.56;63.52
84795;BME280;75026;49.184;16.564;2024-03-22T06:43:42;99067.31;;;20.61;63.55
84795;BME280;75026;49.184;16.564;2024-03-22T06:48:43;99074.94;;;20.60;63.61
84795;BME280;75026;49.184;16.564;2024-03-22T06:53:44;99081.66;;;20.63;63.59
84795;BME280;75026;49.184;16.564;2024-03-22T06:58:46;99074.06;;;20.63;63.67
84795;BME280;75026;49.184;16.564;2024-03-22T07:03:47;99082.81;;;20.65;63.61
84795;BME280;75026;49.184;16.564;2024-03-22T07:08:48;99077.63;;;20.64;63.46
84795;BME280;75026;49.184;16.564;2024-03-22T07:13:49;99071.25;;;20.63;63.67
84795;BME280;75026;49.184;16.564;2024-03-22T07:18:49;99086.03;;;20.64;63.76
84795;BME280;75026;49.184;16.564;2024-03-22T07:23:51;99077.31;;;20.62;63.64
84795;BME280;75026;49.184;16.564;2024-03-22T07:28:51;99078.09;;;20.62;63.69
84795;BME280;75026;49.184;16.564;2024-03-22T07:33:53;99079.03;;;20.72;63.74
84795;BME280;75026;49.184;16.564;2024-03-22T07:38:54;99075.13;;;20.69;63.94
84795;BME280;75026;49.184;16.564;2024-03-22T07:43:56;99080.28;;;20.71;64.03
84795;BME280;75026;49.184;16.564;2024-03-22T07:48:57;99071.78;;;20.74;63.94
84795;BME280;75026;49.184;16.564;2024-03-22T07:53:58;99064.09;;;20.78;63.90
84795;BME280;75026;49.184;16.564;2024-03-22T07:58:59;99062.53;;;20.77;63.81
84795;BME280;75026;49.184;16.564;2024-03-22T08:04:00;99060.84;;;20.80;63.77
84795;BME280;75026;49.184;16.564;2024-03-22T08:09:01;99056.06;;;20.80;63.77
84795;BME280;75026;49.184;16.564;2024-03-22T08:14:03;99057.63;;;20.81;63.71
84795;BME280;75026;49.184;16.564;2024-03-22T08:19:04;99046.34;;;20.85;63.64
84795;BME280;75026;49.184;16.564;2024-03-22T08:24:05;99061.91;;;20.86;63.67
84795;BME280;75026;49.184;16.564;2024-03-22T08:29:06;99044.34;;;20.86;63.59
84795;BME280;75026;49.184;16.564;2024-03-22T08:34:08;99037.88;;;20.89;63.66
84795;BME280;75026;49.184;16.564;2024-03-22T08:39:09;99042.59;;;20.92;63.34
84795;BME280;75026;49.184;16.564;2024-03-22T08:44:11;99048.19;;;20.92;63.54
84795;BME280;75026;49.184;16.564;2024-03-22T08:49:11;99048.50;;;20.94;63.45
84795;BME280;75026;49.184;16.564;2024-03-22T08:54:13;99036.34;;;21.00;63.04
84795;BME280;75026;49.184;16.564;2024-03-22T08:59:15;99043.28;;;20.96;63.22
84795;BME280;75026;49.184;16.564;2024-03-22T09:04:15;99032.97;;;20.93;63.44
84795;BME280;75026;49.184;16.564;2024-03-22T09:09:16;99020.53;;;20.94;63.32
84795;BME280;75026;49.184;16.564;2024-03-22T09:14:17;99024.47;;;20.96;63.30
84795;BME280;75026;49.184;16.564;2024-03-22T09:19:18;99015.63;;;20.98;63.46
84795;BME280;75026;49.184;16.564;2024-03-22T09:24:19;99018.44;;;20.98;63.41
84795;BME280;75026;49.184;16.564;2024-03-22T09:29:21;99010.03;;;20.98;63.33
84795;BME280;75026;49.184;16.564;2024-03-22T09:34:23;99013.88;;;21.04;63.50
84795;BME280;75026;49.184;16.564;2024-03-22T09:39:24;99009.84;;;21.05;63.20
84795;BME280;75026;49.184;16.564;2024-03-22T09:44:27;99014.47;;;21.12;62.04
84795;BME280;75026;49.184;16.564;2024-03-22T09:49:28;99008.38;;;21.00;60.00
84795;BME280;75026;49.184;16.564;2024-03-22T09:54:29;99006.81;;;20.99;60.56
84795;BME280;75026;49.184;16.564;2024-03-22T09:59:30;98998.16;;;20.94;58.90
84795;BME280;75026;49.184;16.564;2024-03-22T10:04:31;99002.88;;;20.97;59.50
84795;BME280;75026;49.184;16.564;2024-03-22T10:09:32;99002.88;;;20.97;58.96
84795;BME280;75026;49.184;16.564;2024-03-22T10:14:35;98996.13;;;20.94;57.68
84795;BME280;75026;49.184;16.564;2024-03-22T10:19:37;98993.78;;;20.93;57.44
84795;BME280;75026;49.184;16.564;2024-03-22T10:24:38;98986.94;;;20.94;57.16
84795;BME280;75026;49.184;16.564;2024-03-22T10:29:39;98972.97;;;20.94;57.62
84795;BME280;75026;49.184;16.564;2024-03-22T10:34:40;98969.38;;;20.93;57.74
84795;BME280;75026;49.184;16.564;2024-03-22T10:39:43;98956.84;;;20.98;58.05
84795;BME280;75026;49.184;16.564;2024-03-22T10:44:46;98946.34;;;21.02;58.74
84795;BME280;75026;49.184;16.564;2024-03-22T10:49:48;98943.53;;;21.02;59.16
84795;BME280;75026;49.184;16.564;2024-03-22T10:54:51;98940.31;;;21.03;59.54
84795;BME280;75026;49.184;16.564;2024-03-22T10:59:54;98933.75;;;21.10;59.62
84795;BME280;75026;49.184;16.564;2024-03-22T11:04:58;98927.69;;;21.12;59.74
84795;BME280;75026;49.184;16.564;2024-03-22T11:10:02;98927.78;;;21.08;59.94
84795;BME280;75026;49.184;16.564;2024-03-22T11:15:05;98919.09;;;20.90;61.34
84795;BME280;75026;49.184;16.564;2024-03-22T11:20:06;98908.97;;;21.09;61.28
84795;BME280;75026;49.184;16.564;2024-03-22T11:25:07;98901.03;;;21.07;61.52
84795;BME280;75026;49.184;16.564;2024-03-22T11:30:08;98902.16;;;21.10;61.67
84795;BME280;75026;49.184;16.564;2024-03-22T11:35:13;98890.94;;;21.10;61.65
84795;BME280;75026;49.184;16.564;2024-03-22T11:40:14;98872.50;;;21.12;62.11
84795;BME280;75026;49.184;16.564;2024-03-22T11:45:16;98878.34;;;21.18;62.13
84795;BME280;75026;49.184;16.564;2024-03-22T11:50:18;98868.81;;;21.15;62.29
84795;BME280;75026;49.184;16.564;2024-03-22T11:55:20;98864.09;;;21.12;62.50
84795;BME280;75026;49.184;16.564;2024-03-22T12:00:21;98867.56;;;21.03;62.44
84795;BME280;75026;49.184;16.564;2024-03-22T12:05:23;98863.72;;;20.97;62.39
84795;BME280;75026;49.184;16.564;2024-03-22T12:10:25;98847.03;;;20.94;62.43
84795;BME280;75026;49.184;16.564;2024-03-22T12:15:26;98842.00;;;20.89;62.53
84795;BME280;75026;49.184;16.564;2024-03-22T12:20:27;98819.38;;;20.83;62.57
84795;BME280;75026;49.184;16.564;2024-03-22T12:25:27;98811.41;;;20.81;62.65
84795;BME280;75026;49.184;16.564;2024-03-22T12:30:28;98816.66;;;20.79;62.65
84795;BME280;75026;49.184;16.564;2024-03-22T12:35:29;98805.16;;;20.77;62.67
84795;BME280;75026;49.184;16.564;2024-03-22T12:40:34;98803.22;;;20.74;62.67
84795;BME280;75026;49.184;16.564;2024-03-22T12:45:34;98798.88;;;20.73;62.85
84795;BME280;75026;49.184;16.564;2024-03-22T12:50:35;98790.47;;;20.73;62.84
84795;BME280;75026;49.184;16.564;2024-03-22T12:55:36;98777.69;;;20.72;62.85
84795;BME280;75026;49.184;16.564;2024-03-22T13:00:37;98771.38;;;20.85;62.75
84795;BME280;75026;49.184;16.564;2024-03-22T13:05:38;98765.41;;;20.82;61.21
84795;BME280;75026;49.184;16.564;2024-03-22T13:10:39;98752.56;;;20.85;59.96
84795;BME280;75026;49.184;16.564;2024-03-22T13:15:43;98739.81;;;20.84;61.17
84795;BME280;75026;49.184;16.564;2024-03-22T13:20:46;98731.97;;;20.92;62.11
84795;BME280;75026;49.184;16.564;2024-03-22T13:25:47;98730.28;;;20.94;62.11
84795;BME280;75026;49.184;16.564;2024-03-22T13:30:48;98722.34;;;20.93;62.41
84795;BME280;75026;49.184;16.564;2024-03-22T13:35:49;98710.59;;;20.98;62.96
84795;BME280;75026;49.184;16.564;2024-03-22T13:40:57;98711.84;;;20.97;62.35
84795;BME280;75026;49.184;16.564;2024-03-22T13:46:01;98699.28;;;20.89;62.72
84795;BME280;75026;49.184;16.564;2024-03-22T13:51:02;98688.53;;;20.87;62.71
84795;BME280;75026;49.184;16.564;2024-03-22T13:56:03;98681.84;;;20.85;62.71
84795;BME280;75026;49.184;16.564;2024-03-22T14:01:04;98661.91;;;20.82;62.55
84795;BME280;75026;49.184;16.564;2024-03-22T14:06:05;98657.56;;;20.81;62.81
84795;BME280;75026;49.184;16.564;2024-03-22T14:11:06;98652.84;;;20.78;62.77
84795;BME280;75026;49.184;16.564;2024-03-22T14:16:07;98644.00;;;20.80;62.86
84795;BME280;75026;49.184;16.564;2024-03-22T14:21:08;98635.59;;;20.80;62.95
84795;BME280;75026;49.184;16.564;2024-03-22T14:26:09;98640.41;;;20.79;62.91
84795;BME280;75026;49.184;16.564;2024-03-22T14:31:10;98626.88;;;20.78;62.83
84795;BME280;75026;49.184;16.564;2024-03-22T14:36:12;98620.50;;;20.77;63.02
84795;BME280;75026;49.184;16.564;2024-03-22T14:41:14;98605.75;;;20.77;62.97
84795;BME280;75026;49.184;16.564;2024-03-22T14:46:14;98595.09;;;20.72;63.06
84795;BME280;75026;49.184;16.564;2024-03-22T14:51:16;98598.69;;;20.72;63.05
84795;BME280;75026;49.184;16.564;2024-03-22T14:56:17;98588.72;;;20.71;63.21
84795;BME280;75026;49.184;16.564;2024-03-22T15:01:19;98596.34;;;20.71;63.12
84795;BME280;75026;49.184;16.564;2024-03-22T15:06:19;98594.31;;;20.71;63.21
84795;BME280;75026;49.184;16.564;2024-03-22T15:11:20;98584.81;;;20.69;63.14
84795;BME280;75026;49.184;16.564;2024-03-22T15:16:21;98576.09;;;20.67;63.25
84795;BME280;75026;49.184;16.564;2024-03-22T15:21:22;98568.16;;;20.65;63.11
84795;BME280;75026;49.184;16.564;2024-03-22T15:26:23;98563.34;;;20.66;63.28
84795;BME280;75026;49.184;16.564;2024-03-22T15:31:24;98555.41;;;20.64;63.20
84795;BME280;75026;49.184;16.564;2024-03-22T15:36:24;98556.16;;;20.65;63.21
84795;BME280;75026;49.184;16.564;2024-03-22T15:41:25;98555.41;;;20.64;63.28
84795;BME280;75026;49.184;16.564;2024-03-22T15:46:26;98548.25;;;20.63;63.30
84795;BME280;75026;49.184;16.564;2024-03-22T15:51:27;98548.25;;;20.63;63.32
84795;BME280;75026;49.184;16.564;2024-03-22T15:56:28;98549.91;;;20.61;63.54
84795;BME280;75026;49.184;16.564;2024-03-22T16:01:29;98547.91;;;20.61;63.36
84795;BME280;75026;49.184;16.564;2024-03-22T16:06:30;98544.78;;;20.59;63.26
84795;BME280;75026;49.184;16.564;2024-03-22T16:11:31;98539.63;;;20.57;63.60
84795;BME280;75026;49.184;16.564;2024-03-22T16:16:32;98537.28;;;20.56;63.45
84795;BME280;75026;49.184;16.564;2024-03-22T16:21:33;98546.34;;;20.60;63.43
84795;BME280;75026;49.184;16.564;2024-03-22T16:26:34;98544.00;;;20.58;63.53
84795;BME280;75026;49.184;16.564;2024-03-22T16:31:35;98531.38;;;20.54;63.41
84795;BME280;75026;49.184;16.564;2024-03-22T16:36:36;98536.50;;;20.55;63.44
84795;BME280;75026;49.184;16.564;2024-03-22T16:41:37;98531.38;;;20.54;63.43
84795;BME280;75026;49.184;16.564;2024-03-22T16:46:38;98526.22;;;20.52;63.58
84795;BME280;75026;49.184;16.564;2024-03-22T16:51:39;98510.56;;;20.55;63.58
84795;BME280;75026;49.184;16.564;2024-03-22T16:56:40;98513.56;;;20.61;63.37
84795;BME280;75026;49.184;16.564;2024-03-22T17:01:42;98518.03;;;20.71;63.30
84795;BME280;75026;49.184;16.564;2024-03-22T17:06:43;98512.97;;;20.78;63.32
84795;BME280;75026;49.184;16.564;2024-03-22T17:11:44;98503.09;;;20.87;63.56
84795;BME280;75026;49.184;16.564;2024-03-22T17:16:44;98497.84;;;20.89;63.51
84795;BME280;75026;49.184;16.564;2024-03-22T17:21:47;98503.75;;;20.91;63.57
84795;BME280;75026;49.184;16.564;2024-03-22T17:26:48;98504.56;;;20.91;63.63
84795;BME280;75026;49.184;16.564;2024-03-22T17:31:49;98506.00;;;20.96;63.58
84795;BME280;75026;49.184;16.564;2024-03-22T17:36:50;98501.50;;;20.98;63.47
84795;BME280;75026;49.184;16.564;2024-03-22T17:41:51;98504.63;;;21.00;63.51
84795;BME280;75026;49.184;16.564;2024-03-22T17:46:52;98505.28;;;21.04;63.57
84795;BME280;75026;49.184;16.564;2024-03-22T17:51:53;98508.97;;;21.14;63.22
84795;BME280;75026;49.184;16.564;2024-03-22T17:56:53;98511.41;;;21.12;63.43
84795;BME280;75026;49.184;16.564;2024-03-22T18:01:54;98502.78;;;21.19;63.37
84795;BME280;75026;49.184;16.564;2024-03-22T18:06:55;98507.13;;;21.20;63.25
84795;BME280;75026;49.184;16.564;2024-03-22T18:11:56;98498.53;;;21.15;63.58
84795;BME280;75026;49.184;16.564;2024-03-22T18:16:57;98492.94;;;21.15;63.51
84795;BME280;75026;49.184;16.564;2024-03-22T18:21:58;98490.94;;;21.15;63.59
84795;BME280;75026;49.184;16.564;2024-03-22T18:26:58;98495.28;;;21.16;63.08
84795;BME280;75026;49.184;16.564;2024-03-22T18:31:59;98483.91;;;21.11;62.02
84795;BME280;75026;49.184;16.564;2024-03-22T18:37:00;98484.44;;;21.18;62.72
84795;BME280;75026;49.184;16.564;2024-03-22T18:42:07;98468.84;;;21.17;62.93
84795;BME280;75026;49.184;16.564;2024-03-22T18:47:09;98461.69;;;21.16;63.11
84795;BME280;75026;49.184;16.564;2024-03-22T18:52:10;98457.66;;;21.17;62.95
84795;BME280;75026;49.184;16.564;2024-03-22T18:57:10;98450.50;;;21.16;63.33
84795;BME280;75026;49.184;16.564;2024-03-22T19:02:11;98451.63;;;21.19;63.34
84795;BME280;75026;49.184;16.564;2024-03-22T19:07:13;98442.75;;;21.20;63.33
84795;BME280;75026;49.184;16.564;2024-03-22T19:12:14;98439.94;;;21.20;63.27
84795;BME280;75026;49.184;16.564;2024-03-22T19:17:15;98438.72;;;21.21;63.27
84795;BME280;75026;49.184;16.564;2024-03-22T19:22:15;98426.28;;;21.22;63.25
84795;BME280;75026;49.184;16.564;2024-03-22T19:27:16;98423.16;;;21.20;63.33
84795;BME280;75026;49.184;16.564;2024-03-22T19:32:17;98420.34;;;21.20;63.64
84795;BME280;75026;49.184;16.564;2024-03-22T19:37:18;98424.41;;;21.19;63.62
84795;BME280;75026;49.184;16.564;2024-03-22T19:42:19;98416.47;;;21.18;63.55
84795;BME280;75026;49.184;16.564;2024-03-22T19:47:20;98407.59;;;21.19;63.64
84795;BME280;75026;49.184;16.564;2024-03-22T19:52:21;98407.94;;;21.21;63.54
84795;BME280;75026;49.184;16.564;2024-03-22T19:57:22;98412.59;;;21.24;63.53
84795;BME280;75026;49.184;16.564;2024-03-22T20:02:23;98408.72;;;21.22;63.88
84795;BME280;75026;49.184;16.564;2024-03-22T20:07:24;98408.25;;;21.23;63.68
84795;BME280;75026;49.184;16.564;2024-03-22T20:12:25;98398.31;;;21.22;63.63
84795;BME280;75026;49.184;16.564;2024-03-22T20:17:25;98397.41;;;21.25;63.47
84795;BME280;75026;49.184;16.564;2024-03-22T20:22:26;98384.63;;;21.24;63.73
84795;BME280;75026;49.184;16.564;2024-03-22T20:27:27;98383.69;;;21.27;63.73
84795;BME280;75026;49.184;16.564;2024-03-22T20:32:28;98386.06;;;21.29;63.52
